Terminal Aerodrome Forecast
Issued by NWS

Home | Current Version | Previous Version | Text Only | Print | Product List | Glossary On
Versions: 1 2 3 4 5 6 7 8 9 10 11 12 13 14 15 16 17 18 19 20 21 22 23 24 25 26 27 28 29 30 31 32 33 34 35 36 37 38 39 40 41 42 43 44 45 46 47 48 49 50
000
FTUS43 KAPX 210530
TAFMBL
TAF
KMBL 210530Z 2106/2206 08005KT P6SM VCSH BKN035
      TEMPO 2106/2110 4SM -SHSN BKN025
     FM211000 08005KT P6SM SCT030
     FM211200 11006KT P6SM FEW250
     FM211500 15008KT P6SM FEW250
     FM220200 14010G20KT P6SM BKN120=

USA.gov is the U.S. government's official web portal to all federal, state and local government web resources and services.